sensor_id;sensor_type;location;lat;lon;timestamp;pressure;altitude;pressure_sealevel;temperature;humidity
47726;BME280;33483;48.294;16.388;2022-12-15T00:03:03;98298.84;;;0.24;100.00
47726;BME280;33483;48.294;16.388;2022-12-15T00:05:54;98301.81;;;0.20;100.00
47726;BME280;33483;48.294;16.388;2022-12-15T00:08:40;98309.22;;;0.20;100.00
47726;BME280;33483;48.294;16.388;2022-12-15T00:11:26;98318.91;;;0.21;100.00
47726;BME280;33483;48.294;16.388;2022-12-15T00:14:11;98322.13;;;0.19;100.00
47726;BME280;33483;48.294;16.388;2022-12-15T00:16:58;98322.84;;;0.20;100.00
47726;BME280;33483;48.294;16.388;2022-12-15T00:19:43;98319.63;;;0.16;100.00
47726;BME280;33483;48.294;16.388;2022-12-15T00:22:29;98318.09;;;0.15;100.00
47726;BME280;33483;48.294;16.388;2022-12-15T00:25:18;98320.56;;;0.13;100.00
47726;BME280;33483;48.294;16.388;2022-12-15T00:28:04;98320.84;;;0.15;100.00
47726;BME280;33483;48.294;16.388;2022-12-15T00:30:49;98321.59;;;0.15;100.00
47726;BME280;33483;48.294;16.388;2022-12-15T00:33:35;98332.47;;;0.15;100.00
47726;BME280;33483;48.294;16.388;2022-12-15T00:36:21;98354.06;;;0.19;100.00
47726;BME280;33483;48.294;16.388;2022-12-15T00:39:07;98354.31;;;0.21;100.00
47726;BME280;33483;48.294;16.388;2022-12-15T00:41:36;98362.72;;;0.17;100.00
47726;BME280;33483;48.294;16.388;2022-12-15T00:44:04;98362.72;;;0.17;100.00
47726;BME280;33483;48.294;16.388;2022-12-15T00:46:31;98370.63;;;0.15;100.00
47726;BME280;33483;48.294;16.388;2022-12-15T00:49:18;98369.59;;;0.13;100.00
47726;BME280;33483;48.294;16.388;2022-12-15T00:52:03;98378.25;;;0.11;100.00
47726;BME280;33483;48.294;16.388;2022-12-15T00:54:52;98389.63;;;0.10;100.00
47726;BME280;33483;48.294;16.388;2022-12-15T00:57:38;98396.34;;;0.14;100.00
47726;BME280;33483;48.294;16.388;2022-12-15T01:00:24;98401.78;;;0.14;100.00
47726;BME280;33483;48.294;16.388;2022-12-15T01:03:12;98399.81;;;0.15;100.00
47726;BME280;33483;48.294;16.388;2022-12-15T01:05:59;98402.78;;;0.11;100.00
47726;BME280;33483;48.294;16.388;2022-12-15T01:08:45;98401.28;;;0.10;100.00
47726;BME280;33483;48.294;16.388;2022-12-15T01:11:31;98410.91;;;0.06;100.00
47726;BME280;33483;48.294;16.388;2022-12-15T01:14:17;98398.03;;;0.06;100.00
47726;BME280;33483;48.294;16.388;2022-12-15T01:17:03;98405.66;;;0.02;100.00
47726;BME280;33483;48.294;16.388;2022-12-15T01:19:48;98388.59;;;0.02;100.00
47726;BME280;33483;48.294;16.388;2022-12-15T01:22:37;98382.66;;;0.03;100.00
47726;BME280;33483;48.294;16.388;2022-12-15T01:25:06;98371.28;;;0.05;100.00
47726;BME280;33483;48.294;16.388;2022-12-15T01:27:34;98373.53;;;0.06;100.00
47726;BME280;33483;48.294;16.388;2022-12-15T01:30:02;98388.38;;;0.05;100.00
47726;BME280;33483;48.294;16.388;2022-12-15T01:32:33;98392.31;;;0.04;100.00
47726;BME280;33483;48.294;16.388;2022-12-15T01:35:01;98405.66;;;0.02;100.00
47726;BME280;33483;48.294;16.388;2022-12-15T01:37:29;98401.94;;;-0.01;100.00
47726;BME280;33483;48.294;16.388;2022-12-15T01:39:59;98412.84;;;-0.01;100.00
47726;BME280;33483;48.294;16.388;2022-12-15T01:42:46;98392.28;;;-0.02;100.00
47726;BME280;33483;48.294;16.388;2022-12-15T01:47:51;98405.38;;;-0.06;100.00
47726;BME280;33483;48.294;16.388;2022-12-15T01:50:19;98408.84;;;-0.05;100.00
47726;BME280;33483;48.294;16.388;2022-12-15T01:52:47;98409.84;;;-0.03;100.00
47726;BME280;33483;48.294;16.388;2022-12-15T01:55:17;98412.63;;;0.03;100.00
47726;BME280;33483;48.294;16.388;2022-12-15T01:57:46;98415.84;;;0.02;100.00
47726;BME280;33483;48.294;16.388;2022-12-15T02:00:14;98419.06;;;0.06;100.00
47726;BME280;33483;48.294;16.388;2022-12-15T02:02:42;98427.47;;;0.02;100.00
47726;BME280;33483;48.294;16.388;2022-12-15T02:05:10;98435.63;;;0.02;100.00
47726;BME280;33483;48.294;16.388;2022-12-15T02:07:37;98437.34;;;-0.01;100.00
47726;BME280;33483;48.294;16.388;2022-12-15T02:10:06;98435.38;;;0.00;100.00
47726;BME280;33483;48.294;16.388;2022-12-15T02:15:38;98419.25;;;-0.04;100.00
47726;BME280;33483;48.294;16.388;2022-12-15T02:29:48;98424.19;;;-0.08;100.00
47726;BME280;33483;48.294;16.388;2022-12-15T02:32:07;98435.34;;;-0.06;100.00
47726;BME280;33483;48.294;16.388;2022-12-15T02:37:10;98440.31;;;-0.04;100.00
47726;BME280;33483;48.294;16.388;2022-12-15T02:39:39;98437.56;;;-0.04;100.00
47726;BME280;33483;48.294;16.388;2022-12-15T02:42:12;98440.84;;;0.00;100.00
47726;BME280;33483;48.294;16.388;2022-12-15T02:44:47;98448.53;;;0.02;100.00
47726;BME280;33483;48.294;16.388;2022-12-15T02:50:28;98463.34;;;0.00;100.00
47726;BME280;33483;48.294;16.388;2022-12-15T03:01:15;98473.28;;;0.03;100.00
47726;BME280;33483;48.294;16.388;2022-12-15T03:03:46;98480.72;;;0.03;100.00
47726;BME280;33483;48.294;16.388;2022-12-15T03:06:14;98493.56;;;0.03;100.00
47726;BME280;33483;48.294;16.388;2022-12-15T03:08:42;98485.69;;;0.05;100.00
47726;BME280;33483;48.294;16.388;2022-12-15T03:11:09;98503.72;;;0.02;100.00
47726;BME280;33483;48.294;16.388;2022-12-15T03:13:37;98500.00;;;-0.01;100.00
47726;BME280;33483;48.294;16.388;2022-12-15T03:16:04;98500.25;;;0.02;100.00
47726;BME280;33483;48.294;16.388;2022-12-15T03:18:31;98501.25;;;0.04;100.00
47726;BME280;33483;48.294;16.388;2022-12-15T03:20:59;98494.84;;;0.07;100.00
47726;BME280;33483;48.294;16.388;2022-12-15T03:23:26;98504.75;;;0.05;100.00
47726;BME280;33483;48.294;16.388;2022-12-15T03:25:54;98497.78;;;0.03;100.00
47726;BME280;33483;48.294;16.388;2022-12-15T03:28:21;98505.72;;;0.02;100.00
47726;BME280;33483;48.294;16.388;2022-12-15T03:30:49;98521.09;;;0.05;100.00
47726;BME280;33483;48.294;16.388;2022-12-15T03:33:16;98511.69;;;0.06;100.00
47726;BME280;33483;48.294;16.388;2022-12-15T03:35:44;98503.97;;;0.04;100.00
47726;BME280;33483;48.294;16.388;2022-12-15T03:38:11;98519.34;;;0.02;100.00
47726;BME280;33483;48.294;16.388;2022-12-15T03:40:41;98519.34;;;0.02;100.00
47726;BME280;33483;48.294;16.388;2022-12-15T03:43:08;98528.97;;;0.03;100.00
47726;BME280;33483;48.294;16.388;2022-12-15T03:45:35;98536.94;;;0.06;100.00
47726;BME280;33483;48.294;16.388;2022-12-15T03:48:02;98527.00;;;0.03;100.00
47726;BME280;33483;48.294;16.388;2022-12-15T03:50:30;98533.19;;;0.03;100.00
47726;BME280;33483;48.294;16.388;2022-12-15T03:52:59;98536.19;;;0.06;100.00
47726;BME280;33483;48.294;16.388;2022-12-15T03:55:28;98552.22;;;-0.02;100.00
47726;BME280;33483;48.294;16.388;2022-12-15T03:57:58;98546.56;;;0.02;100.00
47726;BME280;33483;48.294;16.388;2022-12-15T04:00:26;98563.63;;;0.02;100.00
47726;BME280;33483;48.294;16.388;2022-12-15T04:02:53;98574.03;;;0.03;100.00
47726;BME280;33483;48.294;16.388;2022-12-15T04:05:29;98563.91;;;0.04;100.00
47726;BME280;33483;48.294;16.388;2022-12-15T04:07:57;98569.63;;;0.06;100.00
47726;BME280;33483;48.294;16.388;2022-12-15T04:10:28;98569.16;;;0.08;100.00
47726;BME280;33483;48.294;16.388;2022-12-15T04:13:03;98580.78;;;0.08;100.00
47726;BME280;33483;48.294;16.388;2022-12-15T04:15:31;98582.00;;;0.07;100.00
47726;BME280;33483;48.294;16.388;2022-12-15T04:18:00;98591.69;;;0.08;100.00
47726;BME280;33483;48.294;16.388;2022-12-15T04:20:29;98600.88;;;0.11;100.00
47726;BME280;33483;48.294;16.388;2022-12-15T04:22:57;98598.41;;;0.13;100.00
47726;BME280;33483;48.294;16.388;2022-12-15T04:25:27;98599.22;;;0.19;100.00
47726;BME280;33483;48.294;16.388;2022-12-15T04:28:13;98601.25;;;0.24;100.00
47726;BME280;33483;48.294;16.388;2022-12-15T04:31:15;98614.88;;;0.24;100.00
47726;BME280;33483;48.294;16.388;2022-12-15T04:34:04;98624.53;;;0.25;100.00
47726;BME280;33483;48.294;16.388;2022-12-15T04:36:52;98615.84;;;0.21;100.00
47726;BME280;33483;48.294;16.388;2022-12-15T04:39:44;98604.75;;;0.24;100.00
47726;BME280;33483;48.294;16.388;2022-12-15T04:42:33;98611.34;;;0.18;100.00
47726;BME280;33483;48.294;16.388;2022-12-15T04:45:23;98607.88;;;0.17;100.00
47726;BME280;33483;48.294;16.388;2022-12-15T04:48:12;98614.06;;;0.18;100.00
47726;BME280;33483;48.294;16.388;2022-12-15T04:50:58;98615.03;;;0.15;100.00
47726;BME280;33483;48.294;16.388;2022-12-15T04:53:44;98605.66;;;0.16;100.00
47726;BME280;33483;48.294;16.388;2022-12-15T04:56:30;98608.81;;;0.14;100.00
47726;BME280;33483;48.294;16.388;2022-12-15T04:59:17;98609.59;;;0.15;100.00
47726;BME280;33483;48.294;16.388;2022-12-15T05:02:03;98608.63;;;0.18;100.00
47726;BME280;33483;48.294;16.388;2022-12-15T05:04:49;98600.94;;;0.16;100.00
47726;BME280;33483;48.294;16.388;2022-12-15T05:07:35;98605.38;;;0.14;100.00
47726;BME280;33483;48.294;16.388;2022-12-15T05:10:23;98615.50;;;0.13;100.00
47726;BME280;33483;48.294;16.388;2022-12-15T05:13:09;98627.66;;;0.12;100.00
47726;BME280;33483;48.294;16.388;2022-12-15T05:15:55;98632.56;;;0.08;100.00
47726;BME280;33483;48.294;16.388;2022-12-15T05:18:41;98629.81;;;0.08;100.00
47726;BME280;33483;48.294;16.388;2022-12-15T05:21:27;98632.88;;;0.16;100.00
47726;BME280;33483;48.294;16.388;2022-12-15T05:24:12;98632.13;;;0.15;100.00
47726;BME280;33483;48.294;16.388;2022-12-15T05:26:58;98627.44;;;0.16;100.00
47726;BME280;33483;48.294;16.388;2022-12-15T05:29:44;98634.38;;;0.17;100.00
47726;BME280;33483;48.294;16.388;2022-12-15T05:32:33;98649.75;;;0.20;100.00
47726;BME280;33483;48.294;16.388;2022-12-15T05:35:00;98650.50;;;0.20;100.00
47726;BME280;33483;48.294;16.388;2022-12-15T05:37:27;98657.72;;;0.23;100.00
47726;BME280;33483;48.294;16.388;2022-12-15T05:39:54;98665.16;;;0.23;100.00
47726;BME280;33483;48.294;16.388;2022-12-15T05:42:24;98676.06;;;0.23;100.00
47726;BME280;33483;48.294;16.388;2022-12-15T05:44:51;98670.84;;;0.25;100.00
47726;BME280;33483;48.294;16.388;2022-12-15T05:47:20;98678.31;;;0.24;100.00
47726;BME280;33483;48.294;16.388;2022-12-15T05:49:51;98676.59;;;0.27;100.00
47726;BME280;33483;48.294;16.388;2022-12-15T05:52:18;98676.06;;;0.23;100.00
47726;BME280;33483;48.294;16.388;2022-12-15T05:54:45;98679.59;;;0.29;100.00
47726;BME280;33483;48.294;16.388;2022-12-15T05:57:12;98681.31;;;0.26;100.00
47726;BME280;33483;48.294;16.388;2022-12-15T05:59:39;98689.22;;;0.24;100.00
47726;BME280;33483;48.294;16.388;2022-12-15T06:02:07;98689.28;;;0.30;100.00
47726;BME280;33483;48.294;16.388;2022-12-15T06:04:34;98684.75;;;0.27;100.00
47726;BME280;33483;48.294;16.388;2022-12-15T06:07:01;98680.56;;;0.26;100.00
47726;BME280;33483;48.294;16.388;2022-12-15T06:09:28;98700.31;;;0.21;100.00
47726;BME280;33483;48.294;16.388;2022-12-15T06:11:56;98699.34;;;0.24;100.00
47726;BME280;33483;48.294;16.388;2022-12-15T06:14:23;98700.25;;;0.15;100.00
47726;BME280;33483;48.294;16.388;2022-12-15T06:16:50;98709.69;;;0.20;100.00
47726;BME280;33483;48.294;16.388;2022-12-15T06:19:18;98709.69;;;0.20;100.00
47726;BME280;33483;48.294;16.388;2022-12-15T06:21:46;98705.75;;;0.21;100.00
47726;BME280;33483;48.294;16.388;2022-12-15T06:24:15;98705.97;;;0.17;100.00
47726;BME280;33483;48.294;16.388;2022-12-15T06:26:43;98711.94;;;0.21;100.00
47726;BME280;33483;48.294;16.388;2022-12-15T06:29:11;98711.88;;;0.16;100.00
47726;BME280;33483;48.294;16.388;2022-12-15T06:31:40;98710.44;;;0.20;100.00
47726;BME280;33483;48.294;16.388;2022-12-15T06:34:10;98709.97;;;0.22;100.00
47726;BME280;33483;48.294;16.388;2022-12-15T06:36:40;98719.09;;;0.19;100.00
47726;BME280;33483;48.294;16.388;2022-12-15T06:39:11;98712.41;;;0.20;100.00
47726;BME280;33483;48.294;16.388;2022-12-15T06:41:39;98727.00;;;0.17;100.00
47726;BME280;33483;48.294;16.388;2022-12-15T06:44:09;98721.75;;;0.13;100.00
47726;BME280;33483;48.294;16.388;2022-12-15T06:46:39;98734.81;;;0.09;100.00
47726;BME280;33483;48.294;16.388;2022-12-15T06:49:06;98745.72;;;0.09;100.00
47726;BME280;33483;48.294;16.388;2022-12-15T06:51:34;98755.88;;;0.09;100.00
47726;BME280;33483;48.294;16.388;2022-12-15T06:54:03;98760.56;;;0.08;100.00
47726;BME280;33483;48.294;16.388;2022-12-15T06:56:32;98761.34;;;0.09;100.00
47726;BME280;33483;48.294;16.388;2022-12-15T06:59:05;98766.59;;;0.12;100.00
47726;BME280;33483;48.294;16.388;2022-12-15T07:01:34;98781.69;;;0.13;100.00
47726;BME280;33483;48.294;16.388;2022-12-15T07:04:01;98779.25;;;0.15;100.00
47726;BME280;33483;48.294;16.388;2022-12-15T07:06:36;98790.81;;;0.10;100.00
47726;BME280;33483;48.294;16.388;2022-12-15T07:09:12;98787.34;;;0.10;100.00
47726;BME280;33483;48.294;16.388;2022-12-15T07:11:42;98790.06;;;0.10;100.00
47726;BME280;33483;48.294;16.388;2022-12-15T07:14:12;98780.19;;;0.12;100.00
47726;BME280;33483;48.294;16.388;2022-12-15T07:16:39;98786.94;;;0.17;100.00
47726;BME280;33483;48.294;16.388;2022-12-15T07:19:09;98779.72;;;0.14;100.00
47726;BME280;33483;48.294;16.388;2022-12-15T07:21:37;98769.09;;;0.16;100.00
47726;BME280;33483;48.294;16.388;2022-12-15T07:24:05;98786.19;;;0.16;100.00
47726;BME280;33483;48.294;16.388;2022-12-15T07:26:33;98774.16;;;0.23;100.00
47726;BME280;33483;48.294;16.388;2022-12-15T07:29:00;98777.81;;;0.20;100.00
47726;BME280;33483;48.294;16.388;2022-12-15T07:31:29;98786.53;;;0.24;100.00
47726;BME280;33483;48.294;16.388;2022-12-15T07:33:59;98792.47;;;0.22;100.00
47726;BME280;33483;48.294;16.388;2022-12-15T07:36:26;98784.09;;;0.26;100.00
47726;BME280;33483;48.294;16.388;2022-12-15T07:39:00;98791.59;;;0.31;100.00
47726;BME280;33483;48.294;16.388;2022-12-15T07:41:27;98784.75;;;0.41;100.00
47726;BME280;33483;48.294;16.388;2022-12-15T07:43:56;98791.97;;;0.44;100.00
47726;BME280;33483;48.294;16.388;2022-12-15T07:46:24;98803.50;;;0.53;100.00
47726;BME280;33483;48.294;16.388;2022-12-15T07:48:52;98821.09;;;0.52;100.00
47726;BME280;33483;48.294;16.388;2022-12-15T07:51:20;98835.06;;;0.60;100.00
47726;BME280;33483;48.294;16.388;2022-12-15T07:53:49;98830.16;;;0.64;100.00
47726;BME280;33483;48.294;16.388;2022-12-15T07:56:18;98848.34;;;0.72;100.00
47726;BME280;33483;48.294;16.388;2022-12-15T07:58:46;98851.16;;;0.78;100.00
47726;BME280;33483;48.294;16.388;2022-12-15T08:01:14;98841.03;;;0.84;100.00
47726;BME280;33483;48.294;16.388;2022-12-15T08:03:44;98844.13;;;0.91;100.00
47726;BME280;33483;48.294;16.388;2022-12-15T08:06:12;98837.97;;;0.96;100.00
47726;BME280;33483;48.294;16.388;2022-12-15T08:08:43;98851.34;;;0.94;100.00
47726;BME280;33483;48.294;16.388;2022-12-15T08:11:16;98872.88;;;0.92;100.00
47726;BME280;33483;48.294;16.388;2022-12-15T08:13:43;98867.97;;;0.96;100.00
47726;BME280;33483;48.294;16.388;2022-12-15T08:16:33;98880.88;;;0.96;100.00
47726;BME280;33483;48.294;16.388;2022-12-15T08:19:06;98877.00;;;1.02;100.00
47726;BME280;33483;48.294;16.388;2022-12-15T08:21:35;98882.34;;;1.17;100.00
47726;BME280;33483;48.294;16.388;2022-12-15T08:24:05;98881.78;;;1.33;100.00
47726;BME280;33483;48.294;16.388;2022-12-15T08:26:33;98874.56;;;1.30;100.00
47726;BME280;33483;48.294;16.388;2022-12-15T08:29:02;98879.75;;;1.28;100.00
47726;BME280;33483;48.294;16.388;2022-12-15T08:31:52;98885.22;;;1.28;100.00
47726;BME280;33483;48.294;16.388;2022-12-15T08:34:22;98898.09;;;1.28;100.00
47726;BME280;33483;48.294;16.388;2022-12-15T08:36:49;98900.59;;;1.51;100.00
47726;BME280;33483;48.294;16.388;2022-12-15T08:39:16;98898.16;;;1.84;100.00
47726;BME280;33483;48.294;16.388;2022-12-15T08:41:44;98895.72;;;1.92;100.00
47726;BME280;33483;48.294;16.388;2022-12-15T08:44:11;98905.13;;;1.85;100.00
47726;BME280;33483;48.294;16.388;2022-12-15T08:46:38;98902.94;;;1.89;100.00
47726;BME280;33483;48.294;16.388;2022-12-15T08:49:09;98904.75;;;1.98;100.00
47726;BME280;33483;48.294;16.388;2022-12-15T08:51:36;98908.28;;;2.09;100.00
47726;BME280;33483;48.294;16.388;2022-12-15T08:54:03;98911.75;;;2.04;100.00
47726;BME280;33483;48.294;16.388;2022-12-15T08:56:31;98917.13;;;1.93;100.00
47726;BME280;33483;48.294;16.388;2022-12-15T08:59:00;98918.28;;;1.81;100.00
47726;BME280;33483;48.294;16.388;2022-12-15T09:01:30;98906.59;;;1.81;100.00
47726;BME280;33483;48.294;16.388;2022-12-15T09:03:58;98913.38;;;1.91;100.00
47726;BME280;33483;48.294;16.388;2022-12-15T09:06:29;98918.28;;;1.87;100.00
47726;BME280;33483;48.294;16.388;2022-12-15T09:09:03;98939.16;;;1.84;100.00
47726;BME280;33483;48.294;16.388;2022-12-15T09:11:31;98940.19;;;1.92;100.00
47726;BME280;33483;48.294;16.388;2022-12-15T09:13:58;98934.53;;;1.70;100.00
47726;BME280;33483;48.294;16.388;2022-12-15T09:16:26;98930.09;;;1.73;100.00
47726;BME280;33483;48.294;16.388;2022-12-15T09:18:56;98929.56;;;1.69;100.00
47726;BME280;33483;48.294;16.388;2022-12-15T09:21:26;98928.38;;;1.75;100.00
47726;BME280;33483;48.294;16.388;2022-12-15T09:23:56;98928.94;;;1.85;100.00
47726;BME280;33483;48.294;16.388;2022-12-15T09:26:29;98919.22;;;2.04;100.00
47726;BME280;33483;48.294;16.388;2022-12-15T09:29:00;98928.13;;;2.04;100.00
47726;BME280;33483;48.294;16.388;2022-12-15T09:31:30;98926.38;;;2.01;100.00
47726;BME280;33483;48.294;16.388;2022-12-15T09:33:59;98921.63;;;1.96;100.00
47726;BME280;33483;48.294;16.388;2022-12-15T09:36:27;98927.84;;;1.97;100.00
47726;BME280;33483;48.294;16.388;2022-12-15T09:38:55;98926.59;;;1.98;100.00
47726;BME280;33483;48.294;16.388;2022-12-15T09:41:29;98920.03;;;2.15;100.00
47726;BME280;33483;48.294;16.388;2022-12-15T09:54:48;98948.03;;;3.20;100.00
47726;BME280;33483;48.294;16.388;2022-12-15T10:05:21;98940.66;;;3.49;100.00
47726;BME280;33483;48.294;16.388;2022-12-15T10:08:15;98934.38;;;3.26;100.00
47726;BME280;33483;48.294;16.388;2022-12-15T10:11:34;98935.13;;;3.37;100.00
47726;BME280;33483;48.294;16.388;2022-12-15T10:16:34;98940.34;;;3.30;100.00
47726;BME280;33483;48.294;16.388;2022-12-15T10:19:06;98937.97;;;3.01;100.00
47726;BME280;33483;48.294;16.388;2022-12-15T10:21:34;98943.94;;;2.99;100.00
47726;BME280;33483;48.294;16.388;2022-12-15T10:24:20;98942.44;;;2.93;100.00
47726;BME280;33483;48.294;16.388;2022-12-15T10:30:20;98923.22;;;3.46;100.00
47726;BME280;33483;48.294;16.388;2022-12-15T10:35:22;98915.22;;;3.37;100.00
47726;BME280;33483;48.294;16.388;2022-12-15T10:37:49;98918.94;;;3.34;100.00
47726;BME280;33483;48.294;16.388;2022-12-15T10:40:21;98912.81;;;2.97;100.00
47726;BME280;33483;48.294;16.388;2022-12-15T10:43:17;98910.94;;;2.66;100.00
47726;BME280;33483;48.294;16.388;2022-12-15T10:45:59;98916.91;;;2.65;100.00
47726;BME280;33483;48.294;16.388;2022-12-15T10:48:26;98919.19;;;2.35;100.00
47726;BME280;33483;48.294;16.388;2022-12-15T10:51:21;98936.53;;;2.26;100.00
47726;BME280;33483;48.294;16.388;2022-12-15T10:54:02;98938.34;;;2.09;100.00
47726;BME280;33483;48.294;16.388;2022-12-15T10:56:32;98929.16;;;2.07;100.00
47726;BME280;33483;48.294;16.388;2022-12-15T10:59:03;98920.53;;;2.14;100.00
47726;BME280;33483;48.294;16.388;2022-12-15T11:01:34;98932.91;;;2.09;100.00
47726;BME280;33483;48.294;16.388;2022-12-15T11:04:02;98937.63;;;2.09;100.00
47726;BME280;33483;48.294;16.388;2022-12-15T11:06:33;98924.41;;;2.02;100.00
47726;BME280;33483;48.294;16.388;2022-12-15T11:11:51;98927.44;;;2.09;100.00
47726;BME280;33483;48.294;16.388;2022-12-15T11:14:44;98918.22;;;2.07;100.00
47726;BME280;33483;48.294;16.388;2022-12-15T11:17:19;98913.31;;;2.16;100.00
47726;BME280;33483;48.294;16.388;2022-12-15T11:19:58;98926.06;;;2.25;100.00
47726;BME280;33483;48.294;16.388;2022-12-15T11:22:52;98937.56;;;2.35;100.00
47726;BME280;33483;48.294;16.388;2022-12-15T11:25:37;98931.66;;;2.42;100.00
47726;BME280;33483;48.294;16.388;2022-12-15T11:28:21;98931.66;;;2.42;100.00
47726;BME280;33483;48.294;16.388;2022-12-15T11:30:58;98929.09;;;2.33;100.00
47726;BME280;33483;48.294;16.388;2022-12-15T11:33:26;98923.19;;;2.40;100.00
47726;BME280;33483;48.294;16.388;2022-12-15T11:38:48;98909.72;;;1.99;100.00
47726;BME280;33483;48.294;16.388;2022-12-15T11:41:34;98912.63;;;1.90;100.00
47726;BME280;33483;48.294;16.388;2022-12-15T11:44:24;98915.06;;;1.88;100.00
47726;BME280;33483;48.294;16.388;2022-12-15T11:47:12;98923.97;;;1.83;100.00
47726;BME280;33483;48.294;16.388;2022-12-15T11:49:59;98922.00;;;1.84;100.00
47726;BME280;33483;48.294;16.388;2022-12-15T11:59:25;98922.00;;;1.58;100.00
47726;BME280;33483;48.294;16.388;2022-12-15T12:07:52;98910.00;;;1.50;100.00
47726;BME280;33483;48.294;16.388;2022-12-15T12:18:05;98909.06;;;1.33;100.00
47726;BME280;33483;48.294;16.388;2022-12-15T12:20:41;98920.97;;;1.30;100.00
47726;BME280;33483;48.294;16.388;2022-12-15T12:23:14;98922.94;;;1.30;100.00
47726;BME280;33483;48.294;16.388;2022-12-15T12:25:54;98920.69;;;1.28;100.00
47726;BME280;33483;48.294;16.388;2022-12-15T12:31:23;98909.44;;;1.21;100.00
47726;BME280;33483;48.294;16.388;2022-12-15T12:33:57;98910.88;;;1.16;100.00
47726;BME280;33483;48.294;16.388;2022-12-15T12:36:28;98916.41;;;1.22;100.00
47726;BME280;33483;48.294;16.388;2022-12-15T12:38:56;98906.88;;;1.11;100.00
47726;BME280;33483;48.294;16.388;2022-12-15T12:44:12;98899.34;;;1.06;100.00
47726;BME280;33483;48.294;16.388;2022-12-15T12:46:46;98907.72;;;1.03;100.00
47726;BME280;33483;48.294;16.388;2022-12-15T12:49:36;98900.50;;;1.00;100.00
47726;BME280;33483;48.294;16.388;2022-12-15T12:52:17;98896.56;;;1.01;100.00
47726;BME280;33483;48.294;16.388;2022-12-15T12:54:55;98910.66;;;0.99;100.00
47726;BME280;33483;48.294;16.388;2022-12-15T13:07:39;98932.84;;;1.07;100.00
47726;BME280;33483;48.294;16.388;2022-12-15T13:18:13;98942.53;;;1.08;100.00
47726;BME280;33483;48.294;16.388;2022-12-15T13:20:43;98952.97;;;1.09;100.00
47726;BME280;33483;48.294;16.388;2022-12-15T13:31:11;98923.91;;;1.06;100.00
47726;BME280;33483;48.294;16.388;2022-12-15T13:42:13;98892.66;;;0.87;100.00
47726;BME280;33483;48.294;16.388;2022-12-15T13:44:54;98911.97;;;0.84;100.00
47726;BME280;33483;48.294;16.388;2022-12-15T13:47:27;98920.78;;;0.93;100.00
47726;BME280;33483;48.294;16.388;2022-12-15T13:50:03;98924.66;;;0.87;100.00
47726;BME280;33483;48.294;16.388;2022-12-15T13:52:42;98934.91;;;0.92;100.00
47726;BME280;33483;48.294;16.388;2022-12-15T13:55:38;98946.09;;;0.94;100.00
47726;BME280;33483;48.294;16.388;2022-12-15T13:58:13;98945.81;;;0.92;100.00
47726;BME280;33483;48.294;16.388;2022-12-15T14:00:53;98949.94;;;0.87;100.00
47726;BME280;33483;48.294;16.388;2022-12-15T14:03:22;98947.22;;;0.87;100.00
47726;BME280;33483;48.294;16.388;2022-12-15T14:05:55;98940.06;;;0.90;100.00
47726;BME280;33483;48.294;16.388;2022-12-15T14:08:27;98935.38;;;0.90;100.00
47726;BME280;33483;48.294;16.388;2022-12-15T14:11:00;98926.16;;;0.88;100.00
47726;BME280;33483;48.294;16.388;2022-12-15T14:13:50;98925.19;;;0.91;100.00
47726;BME280;33483;48.294;16.388;2022-12-15T14:16:37;98937.81;;;0.88;100.00
47726;BME280;33483;48.294;16.388;2022-12-15T14:21:38;98942.78;;;0.90;100.00
47726;BME280;33483;48.294;16.388;2022-12-15T14:24:21;98949.81;;;0.96;100.00
47726;BME280;33483;48.294;16.388;2022-12-15T14:27:06;98936.66;;;0.95;100.00
47726;BME280;33483;48.294;16.388;2022-12-15T14:29:34;98937.13;;;0.93;100.00
47726;BME280;33483;48.294;16.388;2022-12-15T14:32:01;98934.06;;;0.86;100.00
47726;BME280;33483;48.294;16.388;2022-12-15T14:34:37;98935.97;;;0.80;100.00
47726;BME280;33483;48.294;16.388;2022-12-15T14:37:07;98936.91;;;0.77;100.00
47726;BME280;33483;48.294;16.388;2022-12-15T14:39:43;98936.91;;;0.77;100.00
47726;BME280;33483;48.294;16.388;2022-12-15T14:42:18;98927.59;;;0.83;100.00
47726;BME280;33483;48.294;16.388;2022-12-15T14:44:48;98922.06;;;0.78;100.00
47726;BME280;33483;48.294;16.388;2022-12-15T14:49:50;98904.38;;;0.73;100.00
47726;BME280;33483;48.294;16.388;2022-12-15T14:52:33;98909.31;;;0.69;100.00
47726;BME280;33483;48.294;16.388;2022-12-15T14:55:20;98904.78;;;0.66;100.00
47726;BME280;33483;48.294;16.388;2022-12-15T14:57:53;98904.97;;;0.63;100.00
47726;BME280;33483;48.294;16.388;2022-12-15T15:00:31;98901.06;;;0.64;100.00
47726;BME280;33483;48.294;16.388;2022-12-15T15:05:53;98898.53;;;0.60;100.00
47726;BME280;33483;48.294;16.388;2022-12-15T15:08:26;98894.50;;;0.56;100.00
47726;BME280;33483;48.294;16.388;2022-12-15T15:10:58;98888.78;;;0.54;100.00
47726;BME280;33483;48.294;16.388;2022-12-15T15:13:35;98877.88;;;0.54;100.00
47726;BME280;33483;48.294;16.388;2022-12-15T15:16:12;98866.31;;;0.44;100.00
47726;BME280;33483;48.294;16.388;2022-12-15T15:18:41;98857.16;;;0.42;100.00
47726;BME280;33483;48.294;16.388;2022-12-15T15:21:17;98850.47;;;0.43;100.00
47726;BME280;33483;48.294;16.388;2022-12-15T15:26:38;98864.09;;;0.43;100.00
47726;BME280;33483;48.294;16.388;2022-12-15T15:29:32;98873.94;;;0.40;100.00
47726;BME280;33483;48.294;16.388;2022-12-15T15:34:38;98910.69;;;0.45;100.00
47726;BME280;33483;48.294;16.388;2022-12-15T15:37:18;98919.44;;;0.49;100.00
47726;BME280;33483;48.294;16.388;2022-12-15T15:39:53;98938.03;;;0.50;100.00
47726;BME280;33483;48.294;16.388;2022-12-15T15:42:21;98940.56;;;0.54;100.00
47726;BME280;33483;48.294;16.388;2022-12-15T15:44:56;98945.47;;;0.50;100.00
47726;BME280;33483;48.294;16.388;2022-12-15T15:47:24;98947.44;;;0.49;100.00